Time;durP1;ratioP1;P1;durP2;ratioP2;P2;SDS_P1;SDS_P2;PMS_P1;PMS_P2;Temp;Humidity;BMP_temperature;BMP_pressure;BME280_temperature;BME280_humidity;BME280_pressure;Samples;Min_cycle;Max_cycle;Signal;HPM_P1;HPM_P2
2022/04/24 00:01:21;;;;;;;6.40;5.80;;;;;;;10.19;nan;100334.72;5032758;28;20679;-50
2022/04/24 00:03:46;;;;;;;7.03;5.35;;;;;;;10.44;nan;100388.94;5031387;28;20029;-52
2022/04/24 00:06:11;;;;;;;6.00;5.40;;;;;;;10.42;nan;100389.94;5031858;28;20103;-55
2022/04/24 00:08:36;;;;;;;7.07;5.82;;;;;;;10.35;nan;100377.91;5015069;28;20048;-54
2022/04/24 00:11:02;;;;;;;5.70;5.15;;;;;;;10.07;nan;100335.97;5032732;28;20033;-55
2022/04/24 00:13:31;;;;;;;8.73;6.15;;;;;;;9.94;nan;100317.22;5032800;28;20045;-51
2022/04/24 00:15:56;;;;;;;7.05;6.00;;;;;;;9.92;nan;100324.31;5047556;28;20124;-54
2022/04/24 00:18:21;;;;;;;6.22;5.65;;;;;;;10.18;nan;100388.22;5032660;28;20437;-57
2022/04/24 00:20:47;;;;;;;6.60;6.00;;;;;;;9.87;nan;100334.13;5032984;28;20570;-56
2022/04/24 00:23:12;;;;;;;6.55;5.95;;;;;;;9.81;nan;100330.84;5032393;28;20061;-53
2022/04/24 00:25:37;;;;;;;6.95;6.25;;;;;;;10.08;nan;100374.53;5032561;28;20034;-53
2022/04/24 00:28:03;;;;;;;6.13;5.63;;;;;;;9.70;nan;100306.75;5032379;28;20033;-52
2022/04/24 00:30:28;;;;;;;6.45;5.85;;;;;;;9.82;nan;100332.56;5032399;28;20041;-54
2022/04/24 00:32:54;;;;;;;6.90;6.20;;;;;;;10.02;nan;100383.50;5032385;28;20473;-55
2022/04/24 00:35:19;;;;;;;6.40;5.80;;;;;;;9.70;nan;100319.88;5031478;28;20454;-55
2022/04/24 00:37:44;;;;;;;6.90;6.28;;;;;;;9.95;nan;100368.03;5032622;28;20064;-54
2022/04/24 00:40:10;;;;;;;7.80;6.57;;;;;;;9.76;nan;100343.31;5032482;28;20033;-54
2022/04/24 00:42:35;;;;;;;6.22;5.63;;;;;;;9.89;nan;100371.75;5032222;28;20476;-56
2022/04/24 00:45:01;;;;;;;6.60;5.95;;;;;;;9.85;nan;100366.63;5032338;28;20034;-53
2022/04/24 00:47:26;;;;;;;7.47;6.82;;;;;;;9.46;nan;100303.25;5032184;28;20064;-52
2022/04/24 00:49:52;;;;;;;6.30;5.70;;;;;;;9.70;nan;100368.06;5032174;28;20121;-55
2022/04/24 00:52:18;;;;;;;6.60;6.00;;;;;;;9.73;nan;100365.31;5031196;28;20124;-55
2022/04/24 00:54:43;;;;;;;7.50;6.70;;;;;;;9.63;nan;100349.94;5031372;28;20034;-51
2022/04/24 00:57:10;;;;;;;6.57;5.93;;;;;;;9.61;nan;100349.97;5031068;28;20032;-53
2022/04/24 00:59:36;;;;;;;7.05;6.35;;;;;;;9.71;nan;100361.03;5032079;28;20036;-51
2022/04/24 01:02:03;;;;;;;7.65;6.95;;;;;;;9.47;nan;100318.09;5031860;28;20033;-55
2022/04/24 01:04:29;;;;;;;7.35;6.63;;;;;;;9.32;nan;100303.75;5032169;28;20041;-56
2022/04/24 01:06:54;;;;;;;7.47;6.78;;;;;;;9.58;nan;100356.22;5031993;28;20045;-56
2022/04/24 01:09:21;;;;;;;7.60;6.72;;;;;;;9.53;nan;100341.53;5031084;28;20077;-51
2022/04/24 01:11:49;;;;;;;7.35;6.65;;;;;;;9.47;nan;100347.00;5030684;28;20034;-53
2022/04/24 01:14:18;;;;;;;7.88;7.18;;;;;;;9.51;nan;100352.09;5032112;28;20037;-57
2022/04/24 01:16:44;;;;;;;7.80;7.05;;;;;;;9.47;nan;100347.00;5031681;28;20033;-54
2022/04/24 01:19:09;;;;;;;8.88;7.20;;;;;;;9.43;nan;100354.13;5031791;28;20045;-55
2022/04/24 01:21:35;;;;;;;7.55;6.85;;;;;;;9.11;nan;100301.88;5031798;28;20120;-53
2022/04/24 01:24:04;;;;;;;8.05;7.35;;;;;;;9.04;nan;100295.13;5031950;28;20080;-52
2022/04/24 01:26:30;;;;;;;8.10;7.30;;;;;;;9.29;nan;100353.75;5030735;28;20029;-53
2022/04/24 01:28:55;;;;;;;8.45;7.30;;;;;;;9.28;nan;100359.91;5047253;28;20033;-58
2022/04/24 01:31:20;;;;;;;8.02;7.22;;;;;;;9.20;nan;100353.19;5031712;28;20091;-52
2022/04/24 01:33:45;;;;;;;10.25;9.25;;;;;;;9.17;nan;100355.94;5047087;28;20473;-54
2022/04/24 01:36:14;;;;;;;9.95;8.13;;;;;;;9.12;nan;100345.59;5030579;28;20128;-52
2022/04/24 01:38:42;;;;;;;10.77;9.68;;;;;;;8.70;nan;100295.41;5031843;28;20025;-51
2022/04/24 01:41:08;;;;;;;11.48;10.10;;;;;;;9.05;nan;100346.72;5030458;28;20036;-53
2022/04/24 01:43:36;;;;;;;10.35;9.35;;;;;;;9.03;nan;100354.66;5031754;28;20034;-54
2022/04/24 01:46:08;;;;;;;10.93;9.93;;;;;;;8.96;nan;100342.63;5031568;28;20040;-55
2022/04/24 01:48:34;;;;;;;11.23;10.23;;;;;;;8.99;nan;100346.91;5035605;28;20046;-54
2022/04/24 01:51:03;;;;;;;12.30;10.98;;;;;;;8.94;nan;100343.59;5035427;28;20098;-53
2022/04/24 01:53:29;;;;;;;12.13;11.00;;;;;;;9.04;nan;100359.00;5034106;28;20075;-57
2022/04/24 01:55:57;;;;;;;11.23;10.23;;;;;;;9.05;nan;100350.19;5035366;28;20041;-55
2022/04/24 01:58:22;;;;;;;12.18;10.98;;;;;;;9.00;nan;100341.63;5035188;28;20040;-56
2022/04/24 02:00:47;;;;;;;12.20;11.00;;;;;;;8.91;nan;100335.81;5034076;28;20041;-56
2022/04/24 02:03:13;;;;;;;11.77;10.63;;;;;;;8.99;nan;100355.66;5035395;28;20119;-57
2022/04/24 02:05:38;;;;;;;17.23;11.95;;;;;;;8.96;nan;100354.91;5035128;28;20118;-55
2022/04/24 02:08:03;;;;;;;12.52;11.25;;;;;;;8.90;nan;100344.63;5035240;28;20037;-56
2022/04/24 02:10:29;;;;;;;13.23;11.93;;;;;;;8.88;nan;100351.66;5035038;28;20515;-54
2022/04/24 02:12:54;;;;;;;13.88;11.85;;;;;;;8.89;nan;100374.41;5034877;28;20037;-52
2022/04/24 02:15:19;;;;;;;13.63;12.35;;;;;;;8.51;nan;100286.44;5035074;28;20033;-52
2022/04/24 02:17:45;;;;;;;14.35;13.00;;;;;;;8.89;nan;100359.50;5034748;28;20095;-52
2022/04/24 02:20:10;;;;;;;14.82;12.82;;;;;;;8.83;nan;100356.22;5034868;28;20044;-52
2022/04/24 02:22:36;;;;;;;14.05;12.65;;;;;;;8.58;nan;100297.59;5034577;28;20081;-52
2022/04/24 02:25:01;;;;;;;13.48;12.10;;;;;;;8.90;nan;100357.75;5034614;28;20037;-55
2022/04/24 02:27:27;;;;;;;14.57;13.18;;;;;;;8.52;nan;100296.03;5049958;28;20029;-54
2022/04/24 02:29:53;;;;;;;15.73;12.80;;;;;;;8.54;nan;100298.59;5050084;28;20030;-55
2022/04/24 02:32:18;;;;;;;15.45;13.85;;;;;;;8.40;nan;100289.41;5034657;28;20044;-56
2022/04/24 02:34:43;;;;;;;13.50;12.10;;;;;;;8.81;nan;100363.28;5034653;28;20044;-57
2022/04/24 02:37:09;;;;;;;14.77;13.15;;;;;;;8.43;nan;100301.56;5034705;28;20341;-53
2022/04/24 02:39:35;;;;;;;16.45;13.23;;;;;;;8.68;nan;100348.84;5034516;28;20472;-60
2022/04/24 02:42:01;;;;;;;14.23;12.68;;;;;;;8.77;nan;100356.41;5034314;28;20042;-56
2022/04/24 02:44:26;;;;;;;13.77;12.32;;;;;;;8.78;nan;100350.28;5034427;28;20026;-55
2022/04/24 02:46:52;;;;;;;15.52;12.35;;;;;;;8.77;nan;100353.78;5033359;28;20037;-55
2022/04/24 02:49:17;;;;;;;14.13;12.55;;;;;;;8.70;nan;100358.38;5034342;28;20372;-56
2022/04/24 02:51:42;;;;;;;14.57;12.63;;;;;;;8.69;nan;100361.06;5034429;28;20037;-58
2022/04/24 02:54:08;;;;;;;15.35;13.73;;;;;;;8.26;nan;100290.72;5034377;28;20037;-57
2022/04/24 02:56:33;;;;;;;14.52;13.13;;;;;;;8.52;nan;100340.63;5049481;28;20080;-57
2022/04/24 02:58:58;;;;;;;14.38;12.93;;;;;;;8.58;nan;100366.63;5033353;28;20033;-55
2022/04/24 03:01:24;;;;;;;14.57;13.07;;;;;;;8.57;nan;100364.06;5034218;28;20531;-58
2022/04/24 03:03:52;;;;;;;15.52;12.70;;;;;;;8.58;nan;100358.75;5034238;28;20124;-59
2022/04/24 03:06:18;;;;;;;14.23;12.82;;;;;;;8.60;nan;100363.97;5034095;28;20030;-57
2022/04/24 03:08:43;;;;;;;13.48;12.15;;;;;;;8.53;nan;100350.19;5033993;28;20044;-56
2022/04/24 03:11:08;;;;;;;13.15;11.68;;;;;;;8.23;nan;100302.16;5033921;28;20037;-54
2022/04/24 03:13:34;;;;;;;13.70;11.48;;;;;;;8.62;nan;100364.78;5032562;28;20040;-60
2022/04/24 03:15:59;;;;;;;12.60;11.35;;;;;;;8.21;nan;100303.09;5034015;28;20082;-54
2022/04/24 03:18:25;;;;;;;12.85;11.48;;;;;;;8.57;nan;100358.81;5033757;28;20080;-55
2022/04/24 03:20:50;;;;;;;14.20;10.93;;;;;;;7.88;nan;100247.38;5033730;28;20374;-57
2022/04/24 03:23:15;;;;;;;12.15;10.85;;;;;;;8.12;nan;100288.50;5033651;28;20054;-58
2022/04/24 03:25:41;;;;;;;13.18;11.65;;;;;;;8.54;nan;100358.91;5033588;28;20400;-57
2022/04/24 03:28:08;;;;;;;12.38;10.88;;;;;;;8.52;nan;100361.59;5033475;28;20041;-55
2022/04/24 03:30:37;;;;;;;12.55;11.32;;;;;;;8.45;nan;100360.06;5033668;28;20230;-57
2022/04/24 03:33:02;;;;;;;12.40;11.07;;;;;;;8.41;nan;100364.53;5033469;28;20443;-54
2022/04/24 03:35:28;;;;;;;12.63;11.27;;;;;;;8.43;nan;100364.50;5032259;28;20026;-55
2022/04/24 03:37:53;;;;;;;14.35;11.90;;;;;;;8.05;nan;100299.25;5033404;28;20037;-57
2022/04/24 03:40:21;;;;;;;17.98;11.05;;;;;;;7.96;nan;100294.28;5033290;28;20044;-59
2022/04/24 03:42:47;;;;;;;14.20;11.52;;;;;;;8.30;nan;100356.16;5032927;28;20124;-54
2022/04/24 03:45:12;;;;;;;11.90;10.63;;;;;;;7.86;nan;100276.22;5033547;28;20128;-55
2022/04/24 03:47:38;;;;;;;12.68;10.98;;;;;;;8.22;nan;100345.03;5031805;28;20556;-56
2022/04/24 03:50:05;;;;;;;12.48;11.27;;;;;;;8.19;nan;100347.72;5033054;28;20472;-56
2022/04/24 03:52:30;;;;;;;16.95;12.27;;;;;;;7.80;nan;100279.03;5033129;28;20064;-59
2022/04/24 03:54:55;;;;;;;11.90;10.60;;;;;;;8.14;nan;100349.66;5033090;28;20490;-55
2022/04/24 03:57:21;;;;;;;12.82;11.63;;;;;;;8.12;nan;100347.94;5033066;28;20037;-58
2022/04/24 03:59:46;;;;;;;11.15;10.05;;;;;;;7.70;nan;100285.44;5035018;28;20041;-55
2022/04/24 04:02:12;;;;;;;12.07;10.35;;;;;;;7.74;nan;100296.66;5049538;28;20041;-57
2022/04/24 04:04:37;;;;;;;13.52;10.73;;;;;;;7.79;nan;100316.59;5051514;28;20083;-57
2022/04/24 04:07:03;;;;;;;11.50;10.30;;;;;;;7.57;nan;100283.22;5052217;28;20071;-54
2022/04/24 04:09:29;;;;;;;12.80;10.15;;;;;;;7.92;nan;100365.13;5052197;28;20090;-57
2022/04/24 04:11:55;;;;;;;13.07;10.48;;;;;;;7.23;nan;100237.06;5051089;28;20072;-58
2022/04/24 04:14:21;;;;;;;10.35;9.15;;;;;;;7.89;nan;100348.63;5051578;28;20055;-57
2022/04/24 04:16:47;;;;;;;11.38;10.27;;;;;;;7.53;nan;100290.28;5052598;28;20081;-56
2022/04/24 04:19:12;;;;;;;11.00;9.90;;;;;;;7.53;nan;100284.22;5052600;28;20123;-59
2022/04/24 04:21:38;;;;;;;10.43;9.32;;;;;;;7.88;nan;100360.03;5052339;28;20057;-57
2022/04/24 04:24:03;;;;;;;11.93;9.55;;;;;;;7.54;nan;100293.78;5052382;28;20590;-58
2022/04/24 04:26:29;;;;;;;10.45;8.98;;;;;;;7.69;nan;100332.63;5052441;28;20040;-58
2022/04/24 04:28:54;;;;;;;11.93;9.93;;;;;;;7.82;nan;100366.28;5052511;28;20029;-52
2022/04/24 04:31:19;;;;;;;10.07;9.05;;;;;;;7.75;nan;100348.19;5051268;28;20399;-54
2022/04/24 04:33:45;;;;;;;11.25;9.35;;;;;;;7.73;nan;100337.75;5052096;28;20472;-59
2022/04/24 04:36:10;;;;;;;9.52;8.63;;;;;;;7.43;nan;100293.22;5051256;28;20039;-53
2022/04/24 04:38:35;;;;;;;10.48;9.35;;;;;;;7.32;nan;100280.44;5052405;28;20037;-55
2022/04/24 04:41:01;;;;;;;10.15;9.25;;;;;;;7.69;nan;100361.44;5052015;28;20582;-56
2022/04/24 04:43:26;;;;;;;10.73;9.65;;;;;;;7.75;nan;100370.00;5051896;28;20041;-53
2022/04/24 04:45:52;;;;;;;9.85;8.93;;;;;;;7.79;nan;100376.03;5052258;28;20043;-56
2022/04/24 04:48:18;;;;;;;12.85;8.98;;;;;;;7.82;nan;100381.19;5067710;28;20033;-57
2022/04/24 04:50:43;;;;;;;10.77;9.25;;;;;;;7.45;nan;100314.97;5051787;28;20029;-56
2022/04/24 04:53:08;;;;;;;10.05;9.05;;;;;;;7.49;nan;100312.25;5052072;28;20037;-57
2022/04/24 04:55:34;;;;;;;10.88;9.77;;;;;;;7.82;nan;100373.31;5052040;28;20040;-56
2022/04/24 04:57:59;;;;;;;9.77;8.80;;;;;;;7.69;nan;100353.59;5051777;28;20381;-56
2022/04/24 05:00:25;;;;;;;10.57;9.20;;;;;;;7.84;nan;100374.97;5052171;28;20675;-54
2022/04/24 05:02:50;;;;;;;9.88;8.88;;;;;;;7.85;nan;100368.81;5052180;28;20033;-57
2022/04/24 05:05:16;;;;;;;11.40;8.32;;;;;;;7.84;nan;100361.88;5050927;28;20041;-58
2022/04/24 05:07:42;;;;;;;9.73;8.73;;;;;;;7.71;nan;100338.69;5050664;28;20660;-56
2022/04/24 05:10:08;;;;;;;13.60;8.50;;;;;;;8.06;nan;100400.56;5051756;28;20120;-56
2022/04/24 05:12:33;;;;;;;8.77;7.97;;;;;;;8.02;nan;100389.31;5052241;28;20383;-55
2022/04/24 05:15:00;;;;;;;8.93;8.07;;;;;;;7.51;nan;100299.97;5051943;28;20037;-58
2022/04/24 05:17:27;;;;;;;10.25;8.77;;;;;;;8.09;nan;100390.84;5050608;28;20499;-53
2022/04/24 05:19:52;;;;;;;9.95;8.00;;;;;;;8.19;nan;100402.78;5050177;28;20052;-54
2022/04/24 05:22:18;;;;;;;8.95;7.75;;;;;;;8.18;nan;100406.31;5053691;28;20130;-58
2022/04/24 05:24:43;;;;;;;10.48;8.18;;;;;;;8.24;nan;100406.13;5055327;28;20037;-57
2022/04/24 05:27:09;;;;;;;8.70;7.80;;;;;;;8.11;nan;100377.72;5055835;28;20144;-54
2022/04/24 05:29:34;;;;;;;9.73;7.32;;;;;;;8.31;nan;100410.34;5055804;28;20051;-54
2022/04/24 05:31:59;;;;;;;8.50;7.53;;;;;;;8.04;nan;100357.81;5055731;28;20111;-56
2022/04/24 05:34:25;;;;;;;8.52;7.70;;;;;;;8.45;nan;100415.16;5055812;28;20037;-57
2022/04/24 05:36:50;;;;;;;9.00;8.10;;;;;;;8.51;nan;100409.72;5070940;28;20037;-53
2022/04/24 05:39:16;;;;;;;9.90;7.57;;;;;;;8.54;nan;100427.13;5054954;28;20431;-55
2022/04/24 05:41:41;;;;;;;10.00;7.45;;;;;;;8.67;nan;100431.94;5055092;28;20037;-57
2022/04/24 05:44:06;;;;;;;8.95;8.07;;;;;;;8.38;nan;100362.00;5055323;28;20108;-55
2022/04/24 05:46:32;;;;;;;9.18;7.80;;;;;;;8.44;nan;100355.72;5055438;28;20040;-57
2022/04/24 05:49:00;;;;;;;7.97;7.13;;;;;;;8.90;nan;100426.00;5070520;28;20040;-57
2022/04/24 05:51:26;;;;;;;8.77;7.97;;;;;;;8.57;nan;100362.31;5055369;28;20044;-54
2022/04/24 05:53:51;;;;;;;8.57;7.75;;;;;;;9.08;nan;100437.66;5055196;28;20041;-52
2022/04/24 05:56:17;;;;;;;8.40;7.05;;;;;;;9.18;nan;100437.31;5055516;28;20142;-57
2022/04/24 05:58:42;;;;;;;9.38;6.85;;;;;;;8.90;nan;100374.31;5054930;28;20037;-55
2022/04/24 06:01:07;;;;;;;7.97;7.25;;;;;;;9.33;nan;100444.69;5054536;28;20037;-58
2022/04/24 06:03:33;;;;;;;9.25;6.88;;;;;;;9.41;nan;100445.28;5055053;28;20044;-54
2022/04/24 06:05:58;;;;;;;9.02;7.10;;;;;;;9.50;nan;100449.34;5055045;28;20444;-54
2022/04/24 06:08:23;;;;;;;9.30;7.00;;;;;;;9.20;nan;100379.47;5054985;28;20033;-51
2022/04/24 06:10:49;;;;;;;7.43;6.72;;;;;;;9.65;nan;100448.84;5050328;28;20520;-53
2022/04/24 06:13:14;;;;;;;9.45;7.18;;;;;;;9.37;nan;100388.47;5035146;28;20037;-57
2022/04/24 06:15:39;;;;;;;6.47;5.85;;;;;;;9.82;nan;100456.97;5035121;28;20036;-54
2022/04/24 06:18:05;;;;;;;8.70;7.25;;;;;;;9.56;nan;100394.84;5054624;28;20068;-51
2022/04/24 06:20:30;;;;;;;9.27;6.75;;;;;;;9.90;nan;100451.44;5054593;28;20037;-57
2022/04/24 06:22:58;;;;;;;7.22;6.53;;;;;;;9.64;nan;100397.19;5054329;28;20088;-57
2022/04/24 06:25:29;;;;;;;7.25;6.55;;;;;;;10.16;nan;100465.41;5053828;28;20032;-58
2022/04/24 06:27:55;;;;;;;7.85;6.65;;;;;;;9.82;nan;100391.25;5054838;28;20029;-55
2022/04/24 06:30:23;;;;;;;7.38;6.05;;;;;;;10.31;nan;100458.72;5052416;28;20098;-52
2022/04/24 06:32:48;;;;;;;8.57;6.03;;;;;;;10.39;nan;100469.81;5053493;28;20479;-57
2022/04/24 06:35:15;;;;;;;7.28;6.25;;;;;;;10.11;nan;100401.56;5053815;28;20072;-53
2022/04/24 06:37:49;;;;;;;8.38;6.60;;;;;;;10.55;nan;100465.69;5052976;28;20037;-55
2022/04/24 06:40:16;;;;;;;9.60;6.55;;;;;;;10.63;nan;100463.63;5052434;28;20033;-58
2022/04/24 06:42:58;;;;;;;6.28;5.68;;;;;;;10.78;nan;100461.31;5051247;28;20098;-57
2022/04/24 06:45:25;;;;;;;8.93;6.57;;;;;;;10.87;nan;100472.34;5053346;28;20560;-55
2022/04/24 06:47:55;;;;;;;7.40;6.57;;;;;;;10.57;nan;100413.84;5053901;28;20480;-56
2022/04/24 06:50:22;;;;;;;6.85;6.15;;;;;;;10.83;nan;100443.56;5052725;28;20040;-56
2022/04/24 06:53:01;;;;;;;8.73;6.68;;;;;;;11.11;nan;100476.66;5053991;28;20467;-56
2022/04/24 06:55:28;;;;;;;6.43;5.82;;;;;;;10.86;nan;100439.03;5054031;28;20036;-58
2022/04/24 06:57:53;;;;;;;6.22;5.70;;;;;;;11.23;nan;100476.16;5052699;28;20044;-55
2022/04/24 07:00:19;;;;;;;6.50;5.90;;;;;;;11.32;nan;100474.06;5052641;28;20037;-58
2022/04/24 07:02:45;;;;;;;7.72;6.18;;;;;;;11.54;nan;100485.41;5053522;28;20083;-56
2022/04/24 07:05:10;;;;;;;5.90;5.38;;;;;;;11.90;nan;100488.31;5052321;28;20412;-58
2022/04/24 07:07:36;;;;;;;7.78;5.90;;;;;;;12.22;nan;100485.13;5052792;28;20044;-55
2022/04/24 07:10:01;;;;;;;6.20;5.47;;;;;;;12.51;nan;100484.66;5053966;28;20523;-56
2022/04/24 07:12:26;;;;;;;5.78;5.28;;;;;;;12.98;nan;100493.88;5053413;28;20104;-54
2022/04/24 07:14:52;;;;;;;5.75;5.15;;;;;;;13.37;nan;100506.94;5052501;28;20033;-56
2022/04/24 07:17:18;;;;;;;6.18;5.68;;;;;;;13.91;nan;100510.41;5052268;28;20515;-59
2022/04/24 07:19:43;;;;;;;9.90;5.90;;;;;;;13.65;nan;100445.63;5053697;28;20044;-58
2022/04/24 07:22:09;;;;;;;6.50;5.90;;;;;;;14.29;nan;100527.81;5053117;28;20079;-58
2022/04/24 07:24:34;;;;;;;6.15;5.55;;;;;;;14.59;nan;100533.31;5053526;28;20471;-54
2022/04/24 07:26:59;;;;;;;6.05;5.45;;;;;;;14.82;nan;100514.38;5052066;28;20041;-57
2022/04/24 07:29:25;;;;;;;6.22;5.60;;;;;;;15.25;nan;100522.59;5052283;28;20039;-58
2022/04/24 07:31:50;;;;;;;5.80;5.25;;;;;;;15.25;nan;100528.75;5053272;28;20385;-54
2022/04/24 07:34:16;;;;;;;7.15;5.28;;;;;;;15.46;nan;100524.88;5053563;28;20439;-57
2022/04/24 07:36:41;;;;;;;5.93;5.43;;;;;;;15.24;nan;100476.66;5053382;28;20499;-55
2022/04/24 07:39:06;;;;;;;5.93;5.28;;;;;;;15.64;nan;100523.00;5053405;28;20082;-55
2022/04/24 07:41:32;;;;;;;5.43;4.93;;;;;;;15.89;nan;100527.72;5068624;28;20056;-57
2022/04/24 07:43:57;;;;;;;5.68;5.22;;;;;;;15.60;nan;100469.25;5052820;28;20031;-56
2022/04/24 07:46:23;;;;;;;5.43;4.93;;;;;;;16.05;nan;100534.66;5052858;28;20033;-57
2022/04/24 07:48:49;;;;;;;5.53;5.03;;;;;;;16.30;nan;100528.75;5052735;28;20408;-57
2022/04/24 07:51:14;;;;;;;5.82;4.85;;;;;;;16.45;nan;100532.28;5052820;28;20467;-56
2022/04/24 07:53:42;;;;;;;7.35;5.35;;;;;;;16.31;nan;100510.06;5052791;28;20036;-55
2022/04/24 07:56:07;;;;;;;6.60;5.43;;;;;;;16.03;nan;100470.19;5033069;28;20034;-58
2022/04/24 07:58:33;;;;;;;6.35;5.13;;;;;;;16.74;nan;100521.59;5032969;28;20440;-55
2022/04/24 08:00:58;;;;;;;6.30;5.50;;;;;;;17.08;nan;100538.03;5033015;28;20187;-58
2022/04/24 08:03:23;;;;;;;5.85;5.25;;;;;;;17.05;nan;100539.09;5046485;28;20480;-55
2022/04/24 08:05:50;;;;;;;5.80;5.30;;;;;;;16.64;nan;100479.72;5031613;28;20496;-52
2022/04/24 08:08:18;;;;;;;8.20;5.53;;;;;;;16.72;nan;100504.88;5032830;28;20345;-57
2022/04/24 08:10:45;;;;;;;9.55;5.55;;;;;;;16.29;nan;100543.84;5033241;28;20038;-56
2022/04/24 08:13:10;;;;;;;7.22;5.45;;;;;;;15.99;nan;100508.53;5033265;28;20487;-57
2022/04/24 08:15:36;;;;;;;14.27;6.60;;;;;;;16.82;nan;100550.34;5032452;28;20034;-56
2022/04/24 08:18:03;;;;;;;6.63;5.93;;;;;;;17.41;nan;100557.16;5031350;28;20042;-55
2022/04/24 08:20:29;;;;;;;5.50;5.00;;;;;;;17.59;nan;100561.34;5032763;28;20029;-52
2022/04/24 08:22:55;;;;;;;7.22;4.82;;;;;;;16.72;nan;100533.28;5032245;28;20526;-57
2022/04/24 08:25:22;;;;;;;7.35;5.45;;;;;;;17.00;nan;100522.59;5031560;28;20120;-54
2022/04/24 08:27:48;;;;;;;6.80;5.13;;;;;;;17.03;nan;100556.97;5031294;28;20037;-54
2022/04/24 08:30:15;;;;;;;5.80;5.20;;;;;;;16.64;nan;100552.34;5032517;28;20025;-55
2022/04/24 08:32:41;;;;;;;6.13;5.40;;;;;;;17.33;nan;100552.34;5032686;28;20040;-58
2022/04/24 08:35:09;;;;;;;6.82;6.05;;;;;;;17.34;nan;100539.88;5032626;28;20029;-54
2022/04/24 08:37:34;;;;;;;6.80;6.10;;;;;;;17.58;nan;100574.72;5032371;28;20377;-53
2022/04/24 08:40:00;;;;;;;5.82;5.22;;;;;;;17.83;nan;100572.19;5032121;28;20053;-55
2022/04/24 08:42:26;;;;;;;6.45;5.85;;;;;;;18.14;nan;100563.81;5032285;28;20041;-52
2022/04/24 08:44:55;;;;;;;6.10;5.47;;;;;;;18.05;nan;100524.50;5014773;28;20029;-56
2022/04/24 08:47:22;;;;;;;6.38;5.60;;;;;;;18.19;nan;100568.81;5032302;28;20110;-58
2022/04/24 08:49:48;;;;;;;6.53;5.90;;;;;;;18.63;nan;100573.78;5032036;28;20183;-55
2022/04/24 08:52:16;;;;;;;8.55;5.22;;;;;;;18.31;nan;100546.69;5032200;28;20548;-55
2022/04/24 08:54:42;;;;;;;6.10;5.50;;;;;;;18.24;nan;100532.91;5030948;28;20033;-50
2022/04/24 08:57:12;;;;;;;5.75;5.25;;;;;;;18.84;nan;100575.81;5031274;28;20599;-54
2022/04/24 08:59:38;;;;;;;6.25;5.68;;;;;;;18.80;nan;100537.00;5032300;28;20037;-53
2022/04/24 09:02:04;;;;;;;6.55;5.80;;;;;;;19.33;nan;100582.97;5032040;28;20483;-57
2022/04/24 09:04:36;;;;;;;6.30;5.75;;;;;;;18.83;nan;100570.56;5031452;28;20112;-56
2022/04/24 09:07:04;;;;;;;5.88;5.38;;;;;;;18.08;nan;100540.25;5031305;28;20034;-58
2022/04/24 09:09:34;;;;;;;7.35;5.63;;;;;;;18.57;nan;100577.75;5030335;28;20113;-55
2022/04/24 09:12:09;;;;;;;6.40;5.88;;;;;;;18.29;nan;100577.91;5031737;28;20129;-53
2022/04/24 09:14:35;;;;;;;6.50;5.88;;;;;;;17.95;nan;100534.03;5030538;28;20134;-55
2022/04/24 09:17:23;;;;;;;10.15;6.30;;;;;;;17.99;nan;100584.34;5031997;28;20065;-58
2022/04/24 09:19:49;;;;;;;6.95;6.28;;;;;;;18.14;nan;100570.97;5031867;28;20072;-55
2022/04/24 09:22:15;;;;;;;5.88;5.28;;;;;;;18.27;nan;100529.22;5030124;28;20069;-49
2022/04/24 09:24:41;;;;;;;6.95;5.82;;;;;;;18.36;nan;100595.16;5030646;28;20038;-53
2022/04/24 09:27:08;;;;;;;5.65;5.10;;;;;;;18.51;nan;100600.34;5031992;28;20049;-51
2022/04/24 09:29:33;;;;;;;6.68;5.40;;;;;;;18.82;nan;100584.91;5030228;28;20413;-57
2022/04/24 09:31:58;;;;;;;7.43;5.47;;;;;;;18.61;nan;100528.59;5030394;28;20127;-54
2022/04/24 09:34:32;;;;;;;6.25;5.50;;;;;;;19.38;nan;100552.31;5031711;28;20037;-56
2022/04/24 09:37:06;;;;;;;6.30;5.80;;;;;;;20.07;nan;100593.47;5030164;28;20053;-50
2022/04/24 09:39:33;;;;;;;5.95;5.35;;;;;;;19.23;nan;100597.97;5031604;28;20491;-50
2022/04/24 09:42:05;;;;;;;6.50;5.88;;;;;;;18.62;nan;100537.44;5031980;28;20033;-50
2022/04/24 09:44:51;;;;;;;6.05;5.55;;;;;;;19.21;nan;100595.38;5049466;28;20106;-53
2022/04/24 09:47:18;;;;;;;7.38;5.40;;;;;;;19.75;nan;100581.69;5050412;28;20089;-49
2022/04/24 09:49:50;;;;;;;9.73;6.93;;;;;;;20.09;nan;100538.09;5049961;28;20468;-50
2022/04/24 09:52:24;;;;;;;6.93;5.60;;;;;;;20.17;nan;100581.97;5050963;28;20491;-53
2022/04/24 09:54:54;;;;;;;5.78;5.00;;;;;;;20.12;nan;100544.06;5050179;28;20057;-58
2022/04/24 09:57:22;;;;;;;8.85;5.38;;;;;;;20.56;nan;100583.44;5051208;28;20537;-52
2022/04/24 09:59:48;;;;;;;6.10;5.55;;;;;;;20.19;nan;100536.44;5048636;28;20128;-52
2022/04/24 10:02:17;;;;;;;6.05;5.38;;;;;;;21.01;nan;100589.69;5051491;28;20033;-53
2022/04/24 10:04:44;;;;;;;7.45;5.85;;;;;;;21.36;nan;100588.72;5050171;28;20037;-51
2022/04/24 10:07:11;;;;;;;6.05;5.55;;;;;;;20.19;nan;100547.97;5051465;28;20029;-55
2022/04/24 10:09:40;;;;;;;6.60;5.65;;;;;;;20.20;nan;100540.78;5053738;28;20171;-57
2022/04/24 10:12:10;;;;;;;6.35;5.75;;;;;;;20.26;nan;100496.75;5054773;28;20094;-53
2022/04/24 10:14:57;;;;;;;5.40;5.00;;;;;;;20.92;nan;100605.59;5053517;28;20041;-54
2022/04/24 10:17:37;;;;;;;7.75;6.20;;;;;;;20.84;nan;100598.16;5053470;28;20036;-58
2022/04/24 10:20:16;;;;;;;5.43;5.03;;;;;;;21.72;nan;100612.47;5054727;28;20044;-57
2022/04/24 10:22:47;;;;;;;6.47;5.75;;;;;;;22.11;nan;100590.44;5054069;28;20045;-57
2022/04/24 10:25:15;;;;;;;7.53;6.15;;;;;;;22.06;nan;100587.31;5054918;28;20037;-57
2022/04/24 10:27:41;;;;;;;7.90;6.03;;;;;;;21.68;nan;100613.72;5054480;28;20110;-53
2022/04/24 10:30:10;;;;;;;21.73;8.25;;;;;;;21.43;nan;100612.16;5054175;28;20056;-53
2022/04/24 10:32:36;;;;;;;14.75;6.65;;;;;;;21.43;nan;100604.13;5054601;28;20373;-53
2022/04/24 10:35:13;;;;;;;7.55;5.93;;;;;;;21.85;nan;100605.13;5054462;28;20036;-54
2022/04/24 10:37:39;;;;;;;6.25;5.63;;;;;;;21.99;nan;100601.34;5054565;28;20040;-56
2022/04/24 10:40:12;;;;;;;10.40;5.63;;;;;;;23.01;nan;100615.75;5054602;28;20116;-56
2022/04/24 10:42:38;;;;;;;6.57;5.82;;;;;;;22.80;nan;100612.25;5054497;28;20294;-51
2022/04/24 10:45:09;;;;;;;7.15;6.05;;;;;;;22.15;nan;100604.44;5054293;28;20446;-51
2022/04/24 10:47:48;;;;;;;8.25;5.85;;;;;;;22.29;nan;100606.81;5053957;28;20095;-59
2022/04/24 10:50:14;;;;;;;6.75;5.65;;;;;;;22.42;nan;100572.59;5053091;28;20033;-51
2022/04/24 10:52:46;;;;;;;13.05;8.10;;;;;;;21.53;nan;100618.50;5054325;28;20033;-51
2022/04/24 10:55:16;;;;;;;7.38;6.22;;;;;;;21.08;nan;100606.13;5052982;28;20033;-55
2022/04/24 10:57:43;;;;;;;8.82;6.47;;;;;;;20.42;nan;100572.97;5054153;28;20033;-51
2022/04/24 11:00:22;;;;;;;7.13;6.10;;;;;;;20.84;nan;100549.19;5053900;28;20029;-55
2022/04/24 11:02:49;;;;;;;8.85;6.13;;;;;;;21.41;nan;100587.34;5052887;28;20435;-56
2022/04/24 11:05:26;;;;;;;5.75;5.25;;;;;;;22.31;nan;100605.69;5052773;28;20120;-54
2022/04/24 11:08:02;;;;;;;7.97;6.32;;;;;;;22.88;nan;100591.81;5036377;28;20028;-57
2022/04/24 11:10:27;;;;;;;9.65;5.78;;;;;;;22.50;nan;100605.00;5053697;28;20067;-54
2022/04/24 11:12:54;;;;;;;15.82;7.75;;;;;;;21.75;nan;100547.91;5052902;28;20060;-56
2022/04/24 11:15:20;;;;;;;7.03;5.90;;;;;;;22.94;nan;100604.69;5052701;28;20029;-56
2022/04/24 11:17:45;;;;;;;7.15;5.93;;;;;;;23.00;nan;100599.78;5052799;28;20041;-56
2022/04/24 11:20:13;;;;;;;6.32;5.68;;;;;;;22.82;nan;100521.75;5053044;28;20091;-51
2022/04/24 11:22:49;;;;;;;7.20;5.20;;;;;;;23.62;nan;100594.22;5051957;28;20148;-52
2022/04/24 11:25:16;;;;;;;6.55;5.90;;;;;;;23.23;nan;100593.25;5053017;28;20380;-54
2022/04/24 11:27:44;;;;;;;9.20;5.53;;;;;;;23.47;nan;100591.06;5051708;28;20525;-53
2022/04/24 11:30:17;;;;;;;9.65;6.95;;;;;;;22.66;nan;100605.41;5053315;28;20120;-50
2022/04/24 11:32:54;;;;;;;8.18;5.93;;;;;;;22.18;nan;100547.91;5053206;28;20040;-54
2022/04/24 11:35:21;;;;;;;7.22;6.13;;;;;;;21.48;nan;100555.59;5053089;28;20472;-51
2022/04/24 11:37:46;;;;;;;6.57;6.07;;;;;;;22.11;nan;100554.75;5053186;28;20040;-54
2022/04/24 11:40:12;;;;;;;15.18;7.35;;;;;;;22.80;nan;100609.56;5053380;28;20025;-51